^^
Station Historical Data
Daily Summary for December 3, 2017 Units:  English    Metric   Both
« Previous Day
Next Day »
Daily Weekly Monthly Yearly Custom
  High: Low: Average:
Temperature: 46.2 °F 28.7 °F 35.6 °F
Dew Point: 39.4 °F 26.8 °F 32.1 °F
Humidity: 93 % 76 % 87 %
Wind Speed: 3.7 mph 0.0 mph 0.1 mph
Wind Gust: 5.8 mph - -
Wind:- - SW
Pressure: 30.33 in 30.19 in -
Precipitation: 0.00 in    
Historical Graphs
 
 
Tabular Data for December 3, 2017
Time Temperature Dew Point Pressure Wind Wind Speed Wind Gust Humidity Rainfall Rate (Hourly) solar Conditions
00:03 30.2 °F 27.3 °F 30.23 in Calm     89 % 0.00 in 0.0 W/m2 RA
00:13 30.1 °F 27.3 °F 30.22 in Calm     89 % 0.00 in 0.0 W/m2 CLR
00:18 30.0 °F 27.2 °F 30.23 in Calm     89 % 0.00 in 0.0 W/m2 CLR
00:23 30.1 °F 27.3 °F 30.23 in Calm     89 % 0.00 in 0.0 W/m2 FEW
00:28 30.2 °F 27.3 °F 30.22 in Calm     89 % 0.00 in 0.0 W/m2 FEW
00:33 30.1 °F 27.3 °F 30.21 in Calm     89 % 0.00 in 0.0 W/m2 FEW
00:43 30.1 °F 27.5 °F 30.21 in Calm     90 % 0.00 in 0.0 W/m2 FEW
00:48 30.0 °F 27.4 °F 30.21 in Calm     90 % 0.00 in 0.0 W/m2 FEW
00:53 30.0 °F 27.4 °F 30.21 in Calm     90 % 0.00 in 0.0 W/m2 FEW
00:58 30.1 °F 27.5 °F 30.21 in Calm     90 % 0.00 in 0.0 W/m2 FEW
01:04 30.1 °F 27.5 °F 30.20 in Calm     90 % 0.00 in 0.0 W/m2 CLR
01:14 30.1 °F 27.5 °F 30.20 in Calm     90 % 0.00 in 0.0 W/m2 CLR
01:19 30.0 °F 27.4 °F 30.19 in Calm     90 % 0.00 in 0.0 W/m2 CLR
01:24 30.1 °F 27.5 °F 30.20 in Calm     90 % 0.00 in 0.0 W/m2 CLR
01:29 30.2 °F 27.6 °F 30.20 in Calm     90 % 0.00 in 0.0 W/m2 CLR
01:34 30.2 °F 27.6 °F 30.20 in Calm     90 % 0.00 in 0.0 W/m2 CLR
01:39 30.0 °F 27.4 °F 30.20 in Calm     90 % 0.00 in 0.0 W/m2 CLR
02:04 30.7 °F 28.4 °F 30.21 in Calm     91 % 0.00 in 0.0 W/m2 CLR
02:19 30.7 °F 28.1 °F 30.22 in Calm     90 % 0.00 in 0.0 W/m2 CLR
02:34 30.8 °F 28.2 °F 30.22 in Calm     90 % 0.00 in 0.0 W/m2 CLR
02:44 31.1 °F 28.5 °F 30.22 in Calm     90 % 0.00 in 0.0 W/m2 CLR
02:49 31.2 °F 28.6 °F 30.22 in Calm     90 % 0.00 in 0.0 W/m2 CLR
02:54 31.3 °F 28.7 °F 30.22 in Calm     90 % 0.00 in 0.0 W/m2 CLR
02:59 30.9 °F 28.3 °F 30.22 in Calm     90 % 0.00 in 0.0 W/m2 CLR
03:04 30.6 °F 28.0 °F 30.22 in Calm     90 % 0.00 in 0.0 W/m2 CLR
03:14 30.2 °F 27.6 °F 30.22 in Calm     90 % 0.00 in 0.0 W/m2 CLR
03:19 29.9 °F 27.3 °F 30.22 in Calm     90 % 0.00 in 0.0 W/m2 CLR
03:34 29.7 °F 27.1 °F 30.22 in Calm     90 % 0.00 in 0.0 W/m2 CLR
03:39 29.6 °F 27.0 °F 30.22 in Calm     90 % 0.00 in 0.0 W/m2 CLR
03:44 29.4 °F 26.8 °F 30.21 in Calm     90 % 0.00 in 0.0 W/m2 CLR
03:54 29.5 °F 26.9 °F 30.22 in Calm     90 % 0.00 in 0.0 W/m2 CLR
03:59 29.5 °F 26.9 °F 30.22 in Calm     90 % 0.00 in 0.0 W/m2 CLR
04:04 29.6 °F 27.0 °F 30.22 in Calm     90 % 0.00 in 0.0 W/m2 CLR
04:09 29.6 °F 27.0 °F 30.22 in Calm     90 % 0.00 in 0.0 W/m2 CLR
04:19 29.9 °F 27.6 °F 30.22 in Calm     91 % 0.00 in 0.0 W/m2 CLR
04:29 30.1 °F 27.8 °F 30.21 in Calm     91 % 0.00 in 0.0 W/m2 CLR
04:34 30.3 °F 28.0 °F 30.21 in Calm     91 % 0.00 in 0.0 W/m2 CLR
04:39 30.3 °F 27.7 °F 30.21 in Calm     90 % 0.00 in 0.0 W/m2 CLR
04:44 30.3 °F 27.7 °F 30.21 in Calm     90 % 0.00 in 0.0 W/m2 CLR
04:49 30.3 °F 28.0 °F 30.20 in Calm     91 % 0.00 in 0.0 W/m2 CLR
04:54 30.3 °F 28.0 °F 30.20 in Calm     91 % 0.00 in 0.0 W/m2 CLR
04:59 30.3 °F 28.0 °F 30.20 in Calm     91 % 0.00 in 0.0 W/m2 CLR
05:04 30.2 °F 27.6 °F 30.20 in Calm     90 % 0.00 in 0.0 W/m2 OVC
05:09 30.1 °F 27.5 °F 30.20 in Calm     90 % 0.00 in 0.0 W/m2 OVC
05:14 30.0 °F 27.7 °F 30.19 in Calm     91 % 0.00 in 0.0 W/m2 OVC
05:19 29.9 °F 27.6 °F 30.19 in Calm     91 % 0.00 in 0.0 W/m2 OVC
05:24 30.2 °F 27.9 °F 30.19 in Calm     91 % 0.00 in 0.0 W/m2 OVC
05:29 30.1 °F 27.8 °F 30.20 in Calm     91 % 0.00 in 0.0 W/m2 OVC
05:34 30.2 °F 27.9 °F 30.20 in Calm     91 % 0.00 in 0.0 W/m2 OVC
05:39 30.2 °F 27.9 °F 30.20 in Calm     91 % 0.00 in 0.0 W/m2 SCT
05:44 30.5 °F 28.2 °F 30.20 in Calm     91 % 0.00 in 0.0 W/m2 SCT
05:49 30.9 °F 28.6 °F 30.20 in Calm     91 % 0.00 in 0.0 W/m2 SCT
05:54 31.0 °F 28.7 °F 30.21 in Calm     91 % 0.00 in 0.0 W/m2 SCT
05:59 31.2 °F 28.9 °F 30.21 in Calm     91 % 0.00 in 0.0 W/m2 SCT
06:04 31.3 °F 29.0 °F 30.22 in Calm     91 % 0.00 in 0.0 W/m2 BKN
06:09 31.4 °F 29.1 °F 30.21 in Calm     91 % 0.00 in 0.0 W/m2 BKN
06:14 31.7 °F 29.4 °F 30.22 in Calm     91 % 0.00 in 0.0 W/m2 BKN
06:19 31.7 °F 29.4 °F 30.21 in Calm     91 % 0.00 in 0.0 W/m2 BKN
06:24 31.9 °F 29.6 °F 30.21 in Calm     91 % 0.00 in 0.0 W/m2 BKN
06:29 32.1 °F 29.8 °F 30.21 in Calm     91 % 0.00 in 0.0 W/m2 BKN
06:34 32.4 °F 30.1 °F 30.22 in Calm     91 % 0.00 in 0.0 W/m2 BKN
06:39 32.3 °F 30.0 °F 30.22 in Calm     91 % 0.00 in 0.0 W/m2 BKN
06:44 32.4 °F 30.1 °F 30.22 in Calm     91 % 0.00 in 0.0 W/m2 BKN
06:49 32.3 °F 29.7 °F 30.22 in Calm     90 % 0.00 in 0.0 W/m2 BKN
06:54 32.2 °F 29.6 °F 30.22 in Calm     90 % 0.00 in 0.0 W/m2 BKN
06:59 32.2 °F 29.6 °F 30.22 in Calm     90 % 0.00 in 0.0 W/m2 BKN
07:04 32.4 °F 30.1 °F 30.22 in Calm     91 % 0.00 in 0.0 W/m2 OVC
07:09 32.5 °F 29.9 °F 30.22 in Calm     90 % 0.00 in 0.0 W/m2 OVC
07:14 32.7 °F 30.1 °F 30.22 in Calm     90 % 0.00 in 0.0 W/m2 OVC
07:19 32.7 °F 30.1 °F 30.21 in Calm     90 % 0.00 in 5.0 W/m2 OVC
07:24 32.8 °F 30.2 °F 30.21 in Calm     90 % 0.00 in 7.0 W/m2 OVC
07:29 32.7 °F 30.1 °F 30.21 in Calm     90 % 0.00 in 11.0 W/m2 OVC
07:34 32.5 °F 29.9 °F 30.21 in Calm     90 % 0.00 in 12.0 W/m2 OVC
07:37 32.6 °F 30.0 °F 30.21 in Calm     90 % 0.00 in 14.0 W/m2 OVC
07:42 32.7 °F 30.1 °F 30.22 in Calm     90 % 0.00 in 18.0 W/m2 OVC
07:47 32.8 °F 30.2 °F 30.22 in Calm     90 % 0.00 in 25.0 W/m2 OVC
07:52 32.9 °F 30.3 °F 30.22 in Calm     90 % 0.00 in 30.0 W/m2 OVC
07:57 33.0 °F 30.4 °F 30.22 in Calm     90 % 0.00 in 40.0 W/m2 OVC
08:02 33.3 °F 30.7 °F 30.22 in Calm     90 % 0.00 in 44.0 W/m2 BKN
08:07 33.5 °F 30.9 °F 30.22 in Calm     90 % 0.00 in 44.0 W/m2 BKN
08:12 33.6 °F 31.0 °F 30.23 in Calm     90 % 0.00 in 49.0 W/m2 BKN
08:17 33.6 °F 31.0 °F 30.23 in Calm     90 % 0.00 in 49.0 W/m2 BKN
08:22 33.8 °F 31.2 °F 30.23 in Calm     90 % 0.00 in 47.0 W/m2 BKN
08:27 34.2 °F 31.6 °F 30.23 in Calm     90 % 0.00 in 39.0 W/m2 BKN
08:32 34.4 °F 31.8 °F 30.23 in Calm     90 % 0.00 in 26.0 W/m2 BKN
08:37 34.6 °F 32.0 °F 30.23 in Calm     90 % 0.00 in 18.0 W/m2 OVC
08:42 34.7 °F 32.1 °F 30.23 in Calm     90 % 0.00 in 19.0 W/m2 OVC
08:47 34.8 °F 31.9 °F 30.23 in Calm     89 % 0.00 in 32.0 W/m2 OVC
08:52 34.7 °F 31.8 °F 30.23 in Calm     89 % 0.00 in 54.0 W/m2 OVC
08:57 34.1 °F 31.2 °F 30.23 in Calm     89 % 0.00 in 67.0 W/m2 OVC
09:02 33.7 °F 30.8 °F 30.23 in Calm     89 % 0.00 in 70.0 W/m2 OVC
09:07 33.8 °F 30.9 °F 30.24 in Calm     89 % 0.00 in 51.0 W/m2 OVC
09:12 33.8 °F 30.9 °F 30.24 in Calm     89 % 0.00 in 47.0 W/m2 OVC
09:17 33.8 °F 30.9 °F 30.24 in Calm     89 % 0.00 in 39.0 W/m2 OVC
09:22 34.0 °F 31.1 °F 30.23 in Calm     89 % 0.00 in 53.0 W/m2 OVC
09:27 34.2 °F 31.3 °F 30.23 in Calm     89 % 0.00 in 54.0 W/m2 OVC
09:32 34.6 °F 31.7 °F 30.24 in Calm     89 % 0.00 in 60.0 W/m2 OVC
09:37 34.9 °F 32.0 °F 30.24 in Calm     89 % 0.00 in 51.0 W/m2 OVC
09:42 35.1 °F 32.2 °F 30.24 in Calm     89 % 0.00 in 44.0 W/m2 OVC
09:48 35.4 °F 32.5 °F 30.24 in Calm     89 % 0.00 in 47.0 W/m2 OVC
09:53 35.5 °F 32.6 °F 30.24 in Calm     89 % 0.00 in 46.0 W/m2 OVC
09:58 35.8 °F 32.9 °F 30.24 in Calm     89 % 0.00 in 58.0 W/m2 OVC
10:03 36.2 °F 33.3 °F 30.24 in Calm     89 % 0.00 in 72.0 W/m2 OVC
10:08 36.4 °F 33.5 °F 30.24 in Calm     89 % 0.00 in 67.0 W/m2 OVC
10:13 36.7 °F 33.5 °F 30.24 in Calm     88 % 0.00 in 58.0 W/m2 OVC
10:18 36.8 °F 33.6 °F 30.24 in Calm     88 % 0.00 in 58.0 W/m2 OVC
10:23 37.0 °F 33.8 °F 30.24 in Calm     88 % 0.00 in 70.0 W/m2 OVC
10:28 37.2 °F 34.0 °F 30.24 in Calm     88 % 0.00 in 84.0 W/m2 OVC
10:33 37.4 °F 34.2 °F 30.24 in Calm     88 % 0.00 in 84.0 W/m2 OVC
10:38 37.7 °F 34.2 °F 30.24 in Calm     87 % 0.00 in 81.0 W/m2 OVC
10:43 37.9 °F 34.4 °F 30.23 in Calm     87 % 0.00 in 67.0 W/m2 OVC
10:48 37.8 °F 34.3 °F 30.23 in Calm     87 % 0.00 in 90.0 W/m2 OVC
10:53 38.0 °F 34.2 °F 30.22 in Calm     86 % 0.00 in 146.0 W/m2 OVC
10:58 38.2 °F 34.4 °F 30.22 in Calm     86 % 0.00 in 195.0 W/m2 OVC
11:03 38.5 °F 34.7 °F 30.22 in Calm     86 % 0.00 in 193.0 W/m2 OVC
11:08 38.8 °F 34.7 °F 30.22 in Calm     85 % 0.00 in 213.0 W/m2 OVC
11:13 38.9 °F 34.8 °F 30.22 in Calm     85 % 0.00 in 183.0 W/m2 OVC
11:18 39.0 °F 34.9 °F 30.21 in Calm     85 % 0.00 in 241.0 W/m2 OVC
11:23 39.8 °F 35.7 °F 30.21 in Calm     85 % 0.00 in 236.0 W/m2 OVC
11:28 39.8 °F 35.4 °F 30.21 in Calm     84 % 0.00 in 232.0 W/m2 OVC
11:33 40.2 °F 35.8 °F 30.21 in Calm     84 % 0.00 in 260.0 W/m2 OVC
11:38 40.9 °F 36.4 °F 30.21 in Calm     84 % 0.00 in 165.0 W/m2 OVC
11:43 40.7 °F 35.9 °F 30.21 in Calm     83 % 0.00 in 158.0 W/m2 OVC
11:48 41.1 °F 36.3 °F 30.21 in Calm     83 % 0.00 in 135.0 W/m2 OVC
11:53 41.1 °F 36.3 °F 30.21 in WSW 0.5 mph 2.3 mph 83 % 0.00 in 135.0 W/m2 OVC
11:58 41.4 °F 36.6 °F 30.21 in Calm   2.3 mph 83 % 0.00 in 142.0 W/m2 OVC
12:03 41.6 °F 36.8 °F 30.21 in WSW 0.8 mph 3.5 mph 83 % 0.00 in 127.0 W/m2 OVC
12:08 41.9 °F 36.8 °F 30.20 in WSW 0.4 mph 3.5 mph 82 % 0.00 in 125.0 W/m2 OVC
12:13 42.2 °F 37.1 °F 30.20 in Calm   3.5 mph 82 % 0.00 in 118.0 W/m2 OVC
12:18 42.2 °F 37.1 °F 30.20 in Calm   3.5 mph 82 % 0.00 in 118.0 W/m2 OVC
12:23 42.3 °F 37.2 °F 30.20 in West 1.7 mph 2.3 mph 82 % 0.00 in 116.0 W/m2 OVC
12:28 42.7 °F 37.3 °F 30.20 in West 0.1 mph 3.5 mph 81 % 0.00 in 128.0 W/m2 OVC
12:33 42.5 °F 37.1 °F 30.20 in Calm   3.5 mph 81 % 0.00 in 165.0 W/m2 OVC
12:38 42.7 °F 37.6 °F 30.19 in Calm   1.2 mph 82 % 0.00 in 183.0 W/m2 OVC
12:43 42.9 °F 37.5 °F 30.20 in Calm     81 % 0.00 in 185.0 W/m2 OVC
12:48 43.3 °F 37.5 °F 30.19 in Calm   2.3 mph 80 % 0.00 in 185.0 W/m2 OVC
12:53 43.2 °F 37.4 °F 30.19 in Calm   2.3 mph 80 % 0.00 in 206.0 W/m2 OVC
12:58 43.4 °F 38.0 °F 30.20 in Calm   2.3 mph 81 % 0.00 in 220.0 W/m2 OVC
13:03 43.9 °F 38.1 °F 30.20 in Calm   2.3 mph 80 % 0.00 in 197.0 W/m2 OVC
13:08 44.2 °F 38.4 °F 30.20 in West 0.2 mph 3.5 mph 80 % 0.00 in 192.0 W/m2 OVC
13:13 44.7 °F 38.9 °F 30.20 in Calm   3.5 mph 80 % 0.00 in 415.0 W/m2 OVC
13:18 45.4 °F 38.9 °F 30.20 in West 1.2 mph 3.5 mph 78 % 0.00 in 176.0 W/m2 OVC
13:23 44.8 °F 38.4 °F 30.20 in Calm   3.5 mph 78 % 0.00 in 304.0 W/m2 OVC
13:28 44.9 °F 38.5 °F 30.20 in Calm   3.5 mph 78 % 0.00 in 190.0 W/m2 OVC
13:33 44.6 °F 38.2 °F 30.20 in Calm   3.5 mph 78 % 0.00 in 190.0 W/m2 OVC
13:38 44.6 °F 38.5 °F 30.20 in Calm   2.3 mph 79 % 0.00 in 322.0 W/m2 BKN
13:43 45.0 °F 38.9 °F 30.20 in Calm     79 % 0.00 in 325.0 W/m2 BKN
13:48 45.7 °F 38.9 °F 30.20 in Calm     77 % 0.00 in 279.0 W/m2 BKN
13:53 45.4 °F 38.6 °F 30.20 in Calm   1.2 mph 77 % 0.00 in 163.0 W/m2 BKN
13:59 45.2 °F 38.4 °F 30.20 in Calm   3.5 mph 77 % 0.00 in 141.0 W/m2 BKN
14:04 45.4 °F 38.9 °F 30.20 in Calm   3.5 mph 78 % 0.00 in 114.0 W/m2 CLR
14:09 45.7 °F 38.9 °F 30.20 in West 0.4 mph 3.5 mph 77 % 0.00 in 120.0 W/m2 CLR
14:14 45.6 °F 38.8 °F 30.20 in Calm   3.5 mph 77 % 0.00 in 121.0 W/m2 CLR
14:19 45.6 °F 38.8 °F 30.20 in Calm   3.5 mph 77 % 0.00 in 91.0 W/m2 CLR
14:24 45.5 °F 38.7 °F 30.20 in West 2.4 mph 3.5 mph 77 % 0.00 in 220.0 W/m2 CLR
14:29 45.4 °F 38.6 °F 30.20 in SW 2.9 mph 3.5 mph 77 % 0.00 in 105.0 W/m2 CLR
14:34 45.5 °F 38.7 °F 30.20 in SW 0.4 mph 4.6 mph 77 % 0.00 in 190.0 W/m2 CLR
14:39 45.8 °F 39.0 °F 30.20 in SW 1.7 mph 4.6 mph 77 % 0.00 in 211.0 W/m2 CLR
14:44 46.2 °F 39.4 °F 30.20 in SSW 3.7 mph 5.8 mph 77 % 0.00 in 190.0 W/m2 CLR
14:49 45.9 °F 39.1 °F 30.20 in Calm   5.8 mph 77 % 0.00 in 186.0 W/m2 CLR
14:54 46.2 °F 39.1 °F 30.20 in Calm   5.8 mph 76 % 0.00 in 174.0 W/m2 CLR
14:59 46.2 °F 39.4 °F 30.20 in SSW 1.9 mph 3.5 mph 77 % 0.00 in 162.0 W/m2 CLR
15:04 45.9 °F 39.1 °F 30.20 in SSW 3.4 mph 5.8 mph 77 % 0.00 in 149.0 W/m2 FEW
15:09 45.9 °F 39.1 °F 30.20 in Calm   5.8 mph 77 % 0.00 in 134.0 W/m2 FEW
15:14 45.7 °F 38.9 °F 30.21 in SSW 3.1 mph 4.6 mph 77 % 0.00 in 121.0 W/m2 FEW
15:19 45.6 °F 38.8 °F 30.21 in SSW 3.2 mph 4.6 mph 77 % 0.00 in 109.0 W/m2 FEW
15:24 45.7 °F 38.9 °F 30.21 in SSW 3.5 mph 3.5 mph 77 % 0.00 in 98.0 W/m2 FEW
15:29 45.7 °F 38.9 °F 30.21 in Calm   3.5 mph 77 % 0.00 in 84.0 W/m2 FEW
15:34 45.7 °F 38.9 °F 30.21 in SSW 0.2 mph 3.5 mph 77 % 0.00 in 72.0 W/m2 FEW
15:39 45.7 °F 38.9 °F 30.21 in Calm   3.5 mph 77 % 0.00 in 53.0 W/m2 FEW
15:44 45.7 °F 38.9 °F 30.21 in SSW 0.8 mph 2.3 mph 77 % 0.00 in 51.0 W/m2 FEW
15:49 45.6 °F 38.8 °F 30.21 in Calm   3.5 mph 77 % 0.00 in 42.0 W/m2 FEW
15:54 45.6 °F 38.8 °F 30.21 in Calm   3.5 mph 77 % 0.00 in 33.0 W/m2 FEW
15:59 45.4 °F 38.6 °F 30.21 in Calm   1.2 mph 77 % 0.00 in 30.0 W/m2 FEW
16:04 45.2 °F 38.4 °F 30.21 in Calm   1.2 mph 77 % 0.00 in 26.0 W/m2 CLR
16:09 44.9 °F 38.5 °F 30.21 in Calm     78 % 0.00 in 21.0 W/m2 CLR
16:14 44.7 °F 38.3 °F 30.21 in Calm     78 % 0.00 in 18.0 W/m2 CLR
16:19 44.5 °F 38.1 °F 30.21 in Calm     78 % 0.00 in 14.0 W/m2 CLR
16:24 44.3 °F 38.2 °F 30.21 in Calm     79 % 0.00 in 11.0 W/m2 CLR
16:29 43.9 °F 37.8 °F 30.21 in Calm     79 % 0.00 in 7.0 W/m2 CLR
16:30 43.7 °F 37.6 °F 30.21 in Calm     79 % 0.00 in 7.0 W/m2 CLR
16:35 43.2 °F 37.4 °F 30.22 in Calm     80 % 0.00 in 5.0 W/m2 CLR
16:40 42.6 °F 36.9 °F 30.22 in Calm     80 % 0.00 in 0.0 W/m2 CLR
16:45 42.4 °F 37.0 °F 30.22 in Calm     81 % 0.00 in 0.0 W/m2 CLR
16:50 42.3 °F 37.2 °F 30.22 in Calm     82 % 0.00 in 0.0 W/m2 CLR
16:55 41.8 °F 36.7 °F 30.22 in Calm     82 % 0.00 in 0.0 W/m2 CLR
17:00 41.2 °F 36.1 °F 30.22 in Calm     82 % 0.00 in 0.0 W/m2 CLR
17:05 40.7 °F 36.2 °F 30.23 in Calm     84 % 0.00 in 0.0 W/m2 CLR
17:10 40.4 °F 35.9 °F 30.23 in Calm     84 % 0.00 in 0.0 W/m2 CLR
17:15 40.1 °F 35.7 °F 30.23 in Calm     84 % 0.00 in 0.0 W/m2 CLR
17:21 39.8 °F 35.7 °F 30.23 in Calm     85 % 0.00 in 0.0 W/m2 CLR
17:26 39.6 °F 35.8 °F 30.24 in Calm     86 % 0.00 in 0.0 W/m2 CLR
17:31 39.3 °F 35.5 °F 30.23 in Calm     86 % 0.00 in 0.0 W/m2 CLR
17:36 39.0 °F 35.2 °F 30.24 in Calm     86 % 0.00 in 0.0 W/m2 CLR
17:41 38.7 °F 34.9 °F 30.24 in Calm     86 % 0.00 in 0.0 W/m2 CLR
17:46 38.2 °F 34.7 °F 30.24 in Calm     87 % 0.00 in 0.0 W/m2 CLR
17:51 38.0 °F 34.5 °F 30.24 in Calm     87 % 0.00 in 0.0 W/m2 CLR
17:56 38.0 °F 34.8 °F 30.24 in Calm     88 % 0.00 in 0.0 W/m2 CLR
18:01 37.9 °F 34.7 °F 30.24 in Calm     88 % 0.00 in 0.0 W/m2 CLR
18:06 37.5 °F 34.3 °F 30.24 in Calm     88 % 0.00 in 0.0 W/m2 CLR
18:11 37.4 °F 34.2 °F 30.24 in Calm     88 % 0.00 in 0.0 W/m2 CLR
18:16 37.1 °F 33.9 °F 30.24 in Calm     88 % 0.00 in 0.0 W/m2 CLR
18:21 36.9 °F 34.0 °F 30.24 in Calm     89 % 0.00 in 0.0 W/m2 CLR
18:26 36.7 °F 33.8 °F 30.25 in Calm     89 % 0.00 in 0.0 W/m2 CLR
18:31 36.3 °F 33.4 °F 30.25 in Calm     89 % 0.00 in 0.0 W/m2 CLR
18:36 36.2 °F 33.3 °F 30.25 in Calm     89 % 0.00 in 0.0 W/m2 CLR
18:41 36.0 °F 33.1 °F 30.25 in Calm     89 % 0.00 in 0.0 W/m2 CLR
18:46 35.7 °F 32.8 °F 30.25 in Calm     89 % 0.00 in 0.0 W/m2 CLR
18:51 35.4 °F 32.8 °F 30.25 in Calm     90 % 0.00 in 0.0 W/m2 CLR
18:56 35.1 °F 32.5 °F 30.25 in Calm     90 % 0.00 in 0.0 W/m2 CLR
19:01 34.9 °F 32.3 °F 30.25 in Calm     90 % 0.00 in 0.0 W/m2 CLR
19:06 34.7 °F 32.1 °F 30.26 in Calm     90 % 0.00 in 0.0 W/m2 CLR
19:11 34.6 °F 32.0 °F 30.26 in Calm     90 % 0.00 in 0.0 W/m2 CLR
19:16 34.2 °F 31.6 °F 30.26 in Calm     90 % 0.00 in 0.0 W/m2 CLR
19:21 34.3 °F 31.9 °F 30.26 in Calm     91 % 0.00 in 0.0 W/m2 CLR
19:26 33.9 °F 31.3 °F 30.26 in Calm     90 % 0.00 in 0.0 W/m2 CLR
19:31 33.9 °F 31.6 °F 30.26 in Calm     91 % 0.00 in 0.0 W/m2 CLR
19:36 33.8 °F 31.5 °F 30.26 in Calm     91 % 0.00 in 0.0 W/m2 CLR
19:41 33.5 °F 31.2 °F 30.27 in Calm     91 % 0.00 in 0.0 W/m2 CLR
19:46 33.2 °F 30.9 °F 30.27 in Calm     91 % 0.00 in 0.0 W/m2 CLR
19:51 33.2 °F 30.9 °F 30.27 in Calm     91 % 0.00 in 0.0 W/m2 CLR
19:56 33.1 °F 30.8 °F 30.27 in Calm     91 % 0.00 in 0.0 W/m2 CLR
20:01 32.9 °F 30.6 °F 30.28 in Calm     91 % 0.00 in 0.0 W/m2 CLR
20:06 32.8 °F 30.5 °F 30.28 in Calm     91 % 0.00 in 0.0 W/m2 CLR
20:11 32.8 °F 30.5 °F 30.28 in Calm     91 % 0.00 in 0.0 W/m2 CLR
20:16 32.8 °F 30.7 °F 30.28 in Calm     92 % 0.00 in 0.0 W/m2 CLR
20:22 32.7 °F 30.6 °F 30.27 in Calm     92 % 0.00 in 0.0 W/m2 CLR
20:27 32.4 °F 30.3 °F 30.27 in Calm     92 % 0.00 in 0.0 W/m2 CLR
20:32 32.1 °F 29.8 °F 30.27 in Calm     91 % 0.00 in 0.0 W/m2 CLR
20:37 31.9 °F 29.6 °F 30.27 in Calm     91 % 0.00 in 0.0 W/m2 CLR
20:42 31.5 °F 29.4 °F 30.28 in Calm     92 % 0.00 in 0.0 W/m2 CLR
20:47 31.4 °F 29.3 °F 30.27 in Calm     92 % 0.00 in 0.0 W/m2 CLR
20:52 31.4 °F 29.3 °F 30.27 in Calm     92 % 0.00 in 0.0 W/m2 CLR
20:57 31.4 °F 29.3 °F 30.28 in Calm     92 % 0.00 in 0.0 W/m2 CLR
21:02 31.3 °F 29.2 °F 30.28 in Calm     92 % 0.00 in 0.0 W/m2 CLR
21:07 31.2 °F 29.1 °F 30.28 in Calm     92 % 0.00 in 0.0 W/m2 CLR
21:12 31.1 °F 29.0 °F 30.28 in Calm     92 % 0.00 in 0.0 W/m2 CLR
21:17 30.8 °F 28.8 °F 30.28 in Calm     92 % 0.00 in 0.0 W/m2 CLR
21:22 30.8 °F 28.8 °F 30.29 in Calm     92 % 0.00 in 0.0 W/m2 CLR
21:27 30.9 °F 28.9 °F 30.29 in Calm     92 % 0.00 in 0.0 W/m2 CLR
21:32 30.8 °F 28.8 °F 30.29 in Calm     92 % 0.00 in 0.0 W/m2 CLR
21:37 30.7 °F 28.7 °F 30.29 in Calm     92 % 0.00 in 0.0 W/m2 CLR
21:42 30.4 °F 28.4 °F 30.29 in Calm     92 % 0.00 in 0.0 W/m2 CLR
21:47 30.5 °F 28.5 °F 30.29 in Calm     92 % 0.00 in 0.0 W/m2 CLR
21:57 30.4 °F 28.6 °F 30.30 in Calm     93 % 0.00 in 0.0 W/m2 CLR
22:02 30.4 °F 28.6 °F 30.30 in Calm     93 % 0.00 in 0.0 W/m2 CLR
22:07 30.6 °F 28.8 °F 30.30 in Calm     93 % 0.00 in 0.0 W/m2 CLR
22:13 30.7 °F 28.9 °F 30.30 in Calm     93 % 0.00 in 0.0 W/m2 CLR
22:19 30.8 °F 29.0 °F 30.30 in Calm     93 % 0.00 in 0.0 W/m2 CLR
22:21 30.9 °F 29.1 °F 30.30 in Calm     93 % 0.00 in 0.0 W/m2 CLR
22:23 30.8 °F 29.0 °F 30.30 in Calm     93 % 0.00 in 0.0 W/m2 CLR
22:26 30.7 °F 28.9 °F 30.30 in Calm     93 % 0.00 in 0.0 W/m2 CLR
22:29 30.4 °F 28.4 °F 30.30 in Calm     92 % 0.00 in 0.0 W/m2 CLR
22:31 30.3 °F 28.3 °F 30.30 in Calm     92 % 0.00 in 0.0 W/m2 CLR
22:36 29.7 °F 27.7 °F 30.30 in Calm     92 % 0.00 in 0.0 W/m2 CLR
22:40 29.7 °F 27.7 °F 30.31 in Calm     92 % 0.00 in 0.0 W/m2 CLR
22:45 29.5 °F 27.7 °F 30.31 in Calm     93 % 0.00 in 0.0 W/m2 CLR
22:50 29.4 °F 27.6 °F 30.31 in Calm     93 % 0.00 in 0.0 W/m2 CLR
22:55 29.4 °F 27.6 °F 30.32 in Calm     93 % 0.00 in 0.0 W/m2 CLR
23:00 29.4 °F 27.6 °F 30.32 in Calm     93 % 0.00 in 0.0 W/m2 CLR
23:05 29.2 °F 27.4 °F 30.32 in Calm     93 % 0.00 in 0.0 W/m2 CLR
23:10 29.0 °F 27.0 °F 30.32 in Calm     92 % 0.00 in 0.0 W/m2 CLR
23:15 28.8 °F 27.0 °F 30.32 in Calm     93 % 0.00 in 0.0 W/m2 CLR
23:20 28.8 °F 27.0 °F 30.32 in Calm     93 % 0.00 in 0.0 W/m2 CLR
23:25 29.0 °F 27.2 °F 30.32 in Calm     93 % 0.00 in 0.0 W/m2 CLR
23:30 28.8 °F 27.0 °F 30.33 in Calm     93 % 0.00 in 0.0 W/m2 CLR
23:35 29.0 °F 27.2 °F 30.33 in Calm     93 % 0.00 in 0.0 W/m2 CLR
23:40 29.0 °F 27.2 °F 30.33 in Calm     93 % 0.00 in 0.0 W/m2 CLR
23:45 28.8 °F 27.0 °F 30.32 in Calm     93 % 0.00 in 0.0 W/m2 CLR
23:50 28.7 °F 26.9 °F 30.33 in Calm     93 % 0.00 in 0.0 W/m2 FEW
23:55 28.8 °F 27.0 °F 30.33 in Calm     93 % 0.00 in 0.0 W/m2 FEW
Air Products Campus Weather
Compliments of Weather Underground - 3.25 mb